Time;durP1;ratioP1;P1;durP2;ratioP2;P2;SDS_P1;SDS_P2;PMS_P1;PMS_P2;Temp;Humidity;BMP_temperature;BMP_pressure;BME280_temperature;BME280_humidity;BME280_pressure;Samples;Min_cycle;Max_cycle;Signal;HPM_P1;HPM_P2
2021/07/28 00:01:43;;;;;;;9.10;8.23;;;19.00;99.90;;;;;;5017865;28;20453;-89
2021/07/28 00:04:10;;;;;;;10.73;8.67;;;18.90;99.90;;;;;;5014441;28;20453;-89
2021/07/28 00:06:37;;;;;;;10.43;9.43;;;18.90;99.90;;;;;;5014055;28;20509;-89
2021/07/28 00:09:05;;;;;;;10.43;9.40;;;19.00;99.90;;;;;;5014263;28;21013;-89
2021/07/28 00:11:31;;;;;;;8.17;7.37;;;19.00;99.90;;;;;;5014224;28;20448;-89
2021/07/28 00:13:59;;;;;;;9.47;8.57;;;19.00;99.90;;;;;;5014451;28;20465;-89
2021/07/28 00:16:26;;;;;;;9.57;8.67;;;18.90;99.90;;;;;;5013963;28;20973;-88
2021/07/28 00:19:02;;;;;;;9.77;8.77;;;18.80;99.90;;;;;;5016122;28;20465;-89
2021/07/28 00:24:15;;;;;;;9.20;8.30;;;19.00;99.90;;;;;;5023788;28;20455;-87
2021/07/28 00:26:41;;;;;;;9.47;8.57;;;19.00;99.90;;;;;;5024738;28;20489;-87
2021/07/28 00:29:08;;;;;;;7.97;7.20;;;19.00;99.90;;;;;;5024492;28;20461;-87
2021/07/28 00:31:35;;;;;;;9.60;8.67;;;19.00;99.90;;;;;;5025467;28;20465;-87
2021/07/28 00:34:02;;;;;;;9.00;8.30;;;18.90;99.90;;;;;;5024628;28;20457;-87
2021/07/28 00:36:29;;;;;;;9.83;8.97;;;18.90;99.90;;;;;;5023985;28;20469;-87
2021/07/28 00:38:55;;;;;;;8.03;7.33;;;18.90;99.90;;;;;;5023230;28;20460;-87
2021/07/28 00:41:23;;;;;;;9.20;8.33;;;18.80;99.90;;;;;;5023592;28;20467;-88
2021/07/28 00:43:50;;;;;;;8.73;7.83;;;18.70;99.90;;;;;;5023776;28;20464;-87
2021/07/28 00:46:17;;;;;;;7.80;7.10;;;18.80;99.90;;;;;;5023042;28;20504;-87
2021/07/28 00:48:44;;;;;;;9.13;8.33;;;18.90;99.90;;;;;;5023517;28;20438;-87
2021/07/28 00:51:11;;;;;;;9.60;8.80;;;18.90;99.90;;;;;;5022987;28;20461;-87
2021/07/28 00:53:38;;;;;;;9.73;8.73;;;18.90;99.90;;;;;;5022592;28;20465;-87
2021/07/28 00:56:05;;;;;;;9.27;8.37;;;18.80;99.90;;;;;;5022499;28;20449;-87
2021/07/28 00:58:33;;;;;;;9.27;8.43;;;18.80;99.90;;;;;;5023201;28;20464;-87
2021/07/28 01:01:00;;;;;;;8.80;8.00;;;18.80;99.90;;;;;;5023021;28;20994;-87
2021/07/28 01:03:27;;;;;;;9.10;8.20;;;18.70;99.90;;;;;;5023460;28;20458;-87
2021/07/28 01:05:59;;;;;;;8.20;7.47;;;18.80;99.90;;;;;;5023384;28;20497;-87
2021/07/28 01:08:26;;;;;;;9.90;8.87;;;18.70;99.90;;;;;;5024968;28;20422;-87
2021/07/28 01:10:54;;;;;;;10.57;8.47;;;18.60;99.90;;;;;;5025113;28;20455;-87
2021/07/28 01:13:26;;;;;;;10.77;9.77;;;18.70;99.90;;;;;;5024951;28;20827;-87
2021/07/28 01:16:00;;;;;;;8.70;8.00;;;18.70;99.90;;;;;;5024577;28;20448;-87
2021/07/28 01:18:27;;;;;;;9.90;8.90;;;18.60;99.90;;;;;;5024592;28;20915;-87
2021/07/28 01:20:53;;;;;;;10.07;9.07;;;18.60;99.90;;;;;;5024946;28;20433;-87
2021/07/28 01:23:22;;;;;;;10.33;9.33;;;18.60;99.90;;;;;;5024710;28;20450;-87
2021/07/28 01:25:50;;;;;;;9.10;8.20;;;18.50;99.90;;;;;;5023801;28;20493;-87
2021/07/28 01:28:18;;;;;;;9.77;8.77;;;18.60;99.90;;;;;;5023616;28;20865;-87
2021/07/28 01:30:45;;;;;;;10.67;9.60;;;18.50;99.90;;;;;;5024015;28;20540;-87
2021/07/28 01:33:11;;;;;;;9.97;8.70;;;18.60;99.90;;;;;;5023956;28;20472;-87
2021/07/28 01:35:39;;;;;;;10.53;9.47;;;18.70;99.90;;;;;;5023515;28;20459;-87
2021/07/28 01:38:06;;;;;;;9.80;8.90;;;18.70;99.90;;;;;;5022442;28;20470;-87
2021/07/28 01:40:38;;;;;;;9.47;8.67;;;18.70;99.90;;;;;;5021497;28;20465;-87
2021/07/28 01:43:13;;;;;;;10.97;9.87;;;18.70;99.90;;;;;;5020668;28;20876;-87
2021/07/28 01:45:41;;;;;;;9.50;8.60;;;18.60;99.90;;;;;;5021844;28;20484;-87
2021/07/28 01:48:08;;;;;;;12.13;11.03;;;18.50;99.90;;;;;;5021994;28;20528;-87
2021/07/28 01:50:35;;;;;;;12.60;11.50;;;18.50;99.90;;;;;;5019395;28;20457;-87
2021/07/28 01:53:03;;;;;;;11.60;10.40;;;18.30;99.90;;;;;;5019789;28;20468;-87
2021/07/28 01:55:29;;;;;;;10.47;9.57;;;18.30;99.90;;;;;;5020131;28;20453;-87
2021/07/28 01:57:59;;;;;;;11.63;10.63;;;18.30;99.90;;;;;;5020324;28;21030;-87
2021/07/28 02:00:25;;;;;;;12.30;11.30;;;18.50;99.90;;;;;;5020578;28;20954;-87
2021/07/28 02:02:52;;;;;;;12.10;11.03;;;18.60;99.90;;;;;;5015253;28;20444;-86
2021/07/28 02:05:19;;;;;;;12.10;11.00;;;18.50;99.90;;;;;;5013456;28;20453;-87
2021/07/28 02:07:46;;;;;;;10.87;9.87;;;18.50;99.90;;;;;;5013262;28;20560;-87
2021/07/28 02:10:13;;;;;;;10.07;9.20;;;18.40;99.90;;;;;;5013885;28;20456;-87
2021/07/28 02:12:40;;;;;;;10.07;9.17;;;18.40;99.90;;;;;;5014407;28;20448;-88
2021/07/28 02:15:09;;;;;;;8.57;7.87;;;18.50;99.90;;;;;;5014656;28;20463;-88
2021/07/28 02:17:36;;;;;;;7.87;7.23;;;18.60;99.90;;;;;;5014601;28;20468;-88
2021/07/28 02:20:03;;;;;;;7.30;6.70;;;18.70;99.90;;;;;;5014268;28;20455;-88
2021/07/28 02:22:30;;;;;;;7.90;7.20;;;18.70;99.90;;;;;;5014097;28;20457;-87
2021/07/28 02:24:57;;;;;;;7.73;7.13;;;18.60;99.90;;;;;;5013813;28;20444;-88
2021/07/28 02:27:24;;;;;;;7.33;6.60;;;18.60;99.90;;;;;;5013948;28;20504;-88
2021/07/28 02:29:50;;;;;;;7.47;6.77;;;18.70;99.90;;;;;;5014473;28;20463;-88
2021/07/28 02:32:18;;;;;;;7.97;7.10;;;18.60;99.90;;;;;;5014001;28;20440;-87
2021/07/28 02:34:45;;;;;;;8.53;7.87;;;18.60;99.90;;;;;;5014551;28;20451;-87
2021/07/28 02:37:12;;;;;;;8.83;7.83;;;18.60;99.90;;;;;;5014738;28;20469;-88
2021/07/28 02:39:38;;;;;;;9.03;8.13;;;18.60;99.90;;;;;;5014800;28;20791;-88
2021/07/28 02:42:05;;;;;;;8.10;7.30;;;18.60;99.90;;;;;;5014755;28;20449;-88
2021/07/28 02:44:32;;;;;;;6.93;6.33;;;18.70;99.90;;;;;;5015341;28;20448;-88
2021/07/28 02:46:59;;;;;;;8.20;7.40;;;18.70;99.90;;;;;;5014779;28;20496;-88
2021/07/28 02:49:27;;;;;;;8.47;7.77;;;18.70;99.90;;;;;;5014762;28;20461;-87
2021/07/28 02:51:54;;;;;;;8.23;7.53;;;18.70;99.90;;;;;;5014955;28;20453;-87
2021/07/28 02:54:22;;;;;;;8.63;7.93;;;18.70;99.90;;;;;;5016148;28;20791;-88
2021/07/28 02:56:49;;;;;;;9.30;8.10;;;18.70;99.90;;;;;;5015810;28;20476;-88
2021/07/28 02:59:16;;;;;;;9.63;8.83;;;18.70;99.90;;;;;;5015053;28;20456;-88
2021/07/28 03:01:42;;;;;;;9.03;8.23;;;18.80;99.90;;;;;;5014834;28;20458;-88
2021/07/28 03:04:09;;;;;;;9.77;8.87;;;18.80;99.90;;;;;;5033313;28;20443;-88
2021/07/28 03:06:38;;;;;;;9.07;8.27;;;18.80;99.90;;;;;;5036729;28;20515;-88
2021/07/28 03:09:04;;;;;;;10.47;9.40;;;18.90;99.90;;;;;;5026574;28;20457;-88
2021/07/28 03:11:31;;;;;;;8.80;8.03;;;18.90;99.90;;;;;;5017061;28;20465;-88
2021/07/28 03:13:58;;;;;;;8.20;7.53;;;18.90;99.90;;;;;;5017579;28;20981;-88
2021/07/28 03:16:24;;;;;;;8.80;8.00;;;18.80;99.90;;;;;;5019197;28;20472;-88
2021/07/28 03:18:51;;;;;;;8.73;8.03;;;18.80;99.90;;;;;;5020072;28;20464;-87
2021/07/28 03:21:18;;;;;;;9.17;8.37;;;18.90;99.90;;;;;;5020379;28;20453;-87
2021/07/28 03:23:46;;;;;;;9.00;8.30;;;18.80;99.90;;;;;;5020102;28;20444;-88
2021/07/28 03:26:13;;;;;;;8.50;7.80;;;18.80;99.90;;;;;;5020122;28;20500;-88
2021/07/28 03:28:40;;;;;;;8.47;7.67;;;18.80;99.90;;;;;;5020212;28;20456;-88
2021/07/28 03:31:06;;;;;;;8.47;7.57;;;18.80;99.90;;;;;;5020304;28;20451;-88
2021/07/28 03:33:33;;;;;;;8.23;7.47;;;18.90;99.90;;;;;;5020357;28;20816;-88
2021/07/28 03:36:00;;;;;;;8.10;7.40;;;18.90;99.90;;;;;;5019749;28;20445;-87
2021/07/28 03:38:27;;;;;;;8.70;7.83;;;18.80;99.90;;;;;;5020453;28;20467;-88
2021/07/28 03:40:55;;;;;;;8.50;7.90;;;18.80;99.90;;;;;;5020500;28;20471;-87
2021/07/28 03:43:22;;;;;;;7.63;6.93;;;18.90;99.90;;;;;;5021324;28;20455;-87
2021/07/28 03:45:49;;;;;;;8.47;7.77;;;18.80;99.90;;;;;;5021405;28;20464;-87
2021/07/28 03:48:16;;;;;;;7.53;6.83;;;18.80;99.90;;;;;;5021681;28;20506;-88
2021/07/28 03:50:42;;;;;;;9.17;8.37;;;18.80;99.90;;;;;;5021162;28;20459;-88
2021/07/28 03:53:09;;;;;;;9.53;8.63;;;18.90;99.90;;;;;;5020464;28;20467;-88
2021/07/28 03:55:36;;;;;;;10.27;9.27;;;18.90;99.90;;;;;;5020090;28;20479;-87
2021/07/28 03:58:04;;;;;;;9.57;8.60;;;18.90;99.90;;;;;;5019887;28;20474;-88
2021/07/28 04:00:31;;;;;;;10.50;9.27;;;18.90;99.90;;;;;;5019648;28;20460;-88
2021/07/28 04:02:58;;;;;;;8.97;8.20;;;18.90;99.90;;;;;;5020144;28;20470;-87
2021/07/28 04:05:24;;;;;;;9.17;8.43;;;18.90;99.90;;;;;;5020846;28;20445;-88
2021/07/28 04:07:57;;;;;;;8.87;8.07;;;18.90;99.90;;;;;;5020616;28;20503;-88
2021/07/28 04:10:24;;;;;;;9.23;8.43;;;18.80;99.90;;;;;;5021277;28;20488;-88
2021/07/28 04:12:51;;;;;;;10.33;9.40;;;18.80;99.90;;;;;;5019950;28;20457;-88
2021/07/28 04:15:19;;;;;;;9.87;8.97;;;18.80;99.90;;;;;;5021250;28;20816;-88
2021/07/28 04:17:46;;;;;;;9.17;8.40;;;18.90;99.90;;;;;;5020414;28;20472;-88
2021/07/28 04:20:14;;;;;;;10.00;9.00;;;18.80;99.90;;;;;;5020397;28;20459;-88
2021/07/28 04:22:41;;;;;;;10.60;7.87;;;18.90;99.90;;;;;;5019965;28;20441;-87
2021/07/28 04:25:09;;;;;;;10.40;9.47;;;18.90;99.90;;;;;;5019606;28;20474;-88
2021/07/28 04:27:36;;;;;;;9.20;8.40;;;18.90;99.90;;;;;;5019903;28;20848;-88
2021/07/28 04:30:04;;;;;;;9.13;8.33;;;18.90;99.90;;;;;;5020539;28;20487;-88
2021/07/28 04:32:33;;;;;;;9.40;8.60;;;18.90;99.90;;;;;;5020325;28;20461;-88
2021/07/28 04:34:59;;;;;;;9.30;8.47;;;18.80;99.90;;;;;;5020403;28;20961;-88
2021/07/28 04:37:26;;;;;;;10.93;9.83;;;18.80;99.90;;;;;;5020011;28;20466;-88
2021/07/28 04:39:53;;;;;;;8.60;7.90;;;18.90;99.90;;;;;;5020316;28;20962;-87
2021/07/28 04:42:20;;;;;;;8.60;7.80;;;18.90;99.90;;;;;;5021073;28;20456;-88
2021/07/28 04:44:46;;;;;;;9.90;6.70;;;18.80;99.90;;;;;;5021209;28;20946;-88
2021/07/28 04:47:13;;;;;;;8.90;8.10;;;18.80;99.90;;;;;;5019470;28;20503;-88
2021/07/28 04:49:41;;;;;;;6.77;6.17;;;18.90;99.90;;;;;;5020527;28;20814;-87
2021/07/28 04:52:09;;;;;;;8.00;7.20;;;18.80;99.90;;;;;;5020806;28;20954;-88
2021/07/28 04:54:36;;;;;;;8.33;7.53;;;18.80;99.90;;;;;;5021246;28;20461;-87
2021/07/28 04:57:03;;;;;;;8.00;6.93;;;18.90;99.90;;;;;;5020142;28;20479;-88
2021/07/28 04:59:29;;;;;;;6.63;6.03;;;19.00;99.90;;;;;;5020198;28;20451;-88
2021/07/28 05:01:56;;;;;;;7.03;6.43;;;19.10;99.90;;;;;;5019921;28;20456;-88
2021/07/28 05:04:23;;;;;;;7.93;7.20;;;19.10;99.90;;;;;;5017707;28;20441;-88
2021/07/28 05:06:51;;;;;;;6.93;6.43;;;19.20;99.90;;;;;;5016670;28;21028;-89
2021/07/28 05:09:19;;;;;;;7.23;6.53;;;19.20;99.90;;;;;;5015674;28;20456;-89
2021/07/28 05:11:46;;;;;;;7.23;6.10;;;19.10;99.90;;;;;;5016201;28;20555;-88
2021/07/28 05:14:13;;;;;;;6.90;6.30;;;19.20;99.90;;;;;;5015747;28;20544;-88
2021/07/28 05:16:39;;;;;;;6.93;6.33;;;19.20;99.90;;;;;;5015252;28;20467;-88
2021/07/28 05:19:06;;;;;;;7.83;7.13;;;19.30;99.90;;;;;;5014802;28;20456;-88
2021/07/28 05:21:33;;;;;;;7.20;6.50;;;19.30;99.90;;;;;;5014528;28;20437;-89
2021/07/28 05:24:02;;;;;;;7.93;7.23;;;19.30;99.90;;;;;;5015400;28;20465;-88
2021/07/28 05:26:28;;;;;;;6.40;5.80;;;19.20;99.90;;;;;;5014875;28;20828;-89
2021/07/28 05:28:55;;;;;;;9.07;8.07;;;19.10;99.90;;;;;;5015428;28;20456;-88
2021/07/28 05:31:22;;;;;;;7.00;6.40;;;19.10;99.90;;;;;;5014809;28;20962;-89
2021/07/28 05:33:48;;;;;;;7.60;7.00;;;19.00;99.90;;;;;;5016004;28;20462;-89
2021/07/28 05:36:15;;;;;;;6.90;6.37;;;19.10;99.90;;;;;;5016124;28;20461;-88
2021/07/28 05:38:42;;;;;;;6.90;6.33;;;19.20;99.90;;;;;;5015293;28;20444;-87
2021/07/28 05:41:10;;;;;;;6.63;5.97;;;19.20;99.90;;;;;;5015062;28;20445;-87
2021/07/28 05:43:37;;;;;;;7.60;6.90;;;19.30;99.90;;;;;;5013907;28;20445;-87
2021/07/28 05:46:03;;;;;;;7.40;6.70;;;19.30;99.90;;;;;;5012903;28;20454;-86
2021/07/28 05:48:31;;;;;;;6.30;5.80;;;19.30;99.90;;;;;;5012868;28;20496;-87
2021/07/28 05:50:59;;;;;;;6.73;6.20;;;19.40;99.90;;;;;;5013225;28;20455;-87
2021/07/28 05:53:27;;;;;;;8.00;7.30;;;19.50;99.90;;;;;;5013020;28;21001;-86
2021/07/28 05:55:55;;;;;;;8.67;7.97;;;19.40;99.90;;;;;;5013363;28;20529;-87
2021/07/28 05:58:23;;;;;;;7.17;6.57;;;19.50;99.90;;;;;;5013581;28;20511;-87
2021/07/28 06:00:50;;;;;;;6.13;5.60;;;19.60;99.90;;;;;;5013503;28;20458;-88
2021/07/28 06:03:16;;;;;;;7.00;5.67;;;19.60;99.90;;;;;;5012839;28;20449;-87
2021/07/28 06:05:43;;;;;;;7.37;6.73;;;19.60;99.90;;;;;;5013223;28;20456;-88
2021/07/28 06:08:10;;;;;;;6.60;6.00;;;19.70;99.90;;;;;;5014376;28;20567;-90
2021/07/28 06:10:37;;;;;;;6.23;5.83;;;19.70;99.90;;;;;;5013170;28;20466;-90
2021/07/28 06:13:04;;;;;;;7.13;6.43;;;19.70;99.90;;;;;;5012590;28;20438;-90
2021/07/28 06:15:32;;;;;;;6.17;5.67;;;19.80;99.90;;;;;;5012792;28;20517;-90
2021/07/28 06:17:59;;;;;;;7.70;6.93;;;19.80;99.90;;;;;;5012780;28;20472;-90
2021/07/28 06:20:26;;;;;;;6.27;5.70;;;19.70;99.90;;;;;;5012763;28;20465;-90
2021/07/28 06:22:53;;;;;;;5.57;5.13;;;19.80;99.90;;;;;;5012019;28;20942;-90
2021/07/28 06:25:19;;;;;;;7.17;6.40;;;19.80;99.90;;;;;;5011839;28;20460;-90
2021/07/28 06:27:49;;;;;;;7.50;6.17;;;19.60;99.90;;;;;;5011852;28;20487;-90
2021/07/28 06:30:17;;;;;;;6.53;5.93;;;19.70;99.90;;;;;;5011802;28;20824;-90
2021/07/28 06:32:45;;;;;;;6.50;6.00;;;19.40;99.90;;;;;;5012259;28;20883;-89
2021/07/28 06:35:15;;;;;;;6.87;6.30;;;19.40;99.90;;;;;;5011936;28;20988;-90
2021/07/28 06:37:46;;;;;;;6.63;6.03;;;19.40;99.90;;;;;;5013073;28;21019;-90
2021/07/28 06:40:14;;;;;;;8.20;7.40;;;19.30;99.90;;;;;;5011904;28;20770;-90
2021/07/28 06:42:41;;;;;;;7.47;6.77;;;19.20;99.90;;;;;;5005333;28;20459;-89
2021/07/28 06:45:09;;;;;;;6.93;6.33;;;19.00;99.90;;;;;;5011611;28;20549;-89
2021/07/28 06:47:36;;;;;;;8.80;8.00;;;19.00;99.90;;;;;;5011522;28;20511;-89
2021/07/28 06:50:05;;;;;;;8.10;7.40;;;18.90;99.90;;;;;;5015106;28;20447;-88
2021/07/28 06:52:32;;;;;;;8.10;7.40;;;18.80;99.90;;;;;;5015326;28;20446;-87
2021/07/28 06:54:58;;;;;;;10.60;7.63;;;18.70;99.90;;;;;;5015929;28;20441;-87
2021/07/28 06:57:25;;;;;;;7.30;6.70;;;18.70;99.90;;;;;;5015984;28;20471;-87
2021/07/28 06:59:52;;;;;;;9.70;8.70;;;18.70;99.90;;;;;;5016395;28;20457;-88
2021/07/28 07:02:19;;;;;;;10.27;9.27;;;18.50;99.90;;;;;;5015720;28;20457;-87
2021/07/28 07:04:46;;;;;;;8.80;8.00;;;18.30;99.90;;;;;;5023779;28;20463;-88
2021/07/28 07:07:14;;;;;;;9.13;8.33;;;18.30;99.90;;;;;;5039754;28;20486;-87
2021/07/28 07:09:41;;;;;;;8.63;7.73;;;18.10;99.90;;;;;;5039506;28;20456;-87
2021/07/28 07:12:08;;;;;;;8.83;8.03;;;18.10;99.90;;;;;;5017624;28;20554;-87
2021/07/28 07:14:36;;;;;;;9.27;8.37;;;18.10;99.90;;;;;;5015556;28;20455;-87
2021/07/28 07:17:04;;;;;;;8.77;7.97;;;18.20;99.90;;;;;;5015718;28;20550;-88
2021/07/28 07:19:30;;;;;;;9.50;8.70;;;18.20;99.90;;;;;;5015832;28;20825;-87
2021/07/28 07:21:57;;;;;;;9.27;8.37;;;18.20;99.90;;;;;;5015677;28;20460;-88
2021/07/28 07:24:25;;;;;;;9.80;7.60;;;18.30;99.90;;;;;;5015850;28;20467;-87
2021/07/28 07:26:52;;;;;;;9.20;8.40;;;18.30;99.90;;;;;;5015204;28;20475;-85
2021/07/28 07:29:19;;;;;;;9.40;8.50;;;18.40;99.90;;;;;;5015441;28;21032;-88
2021/07/28 07:31:46;;;;;;;8.20;7.40;;;18.40;99.90;;;;;;5016020;28;20463;-86
2021/07/28 07:34:13;;;;;;;13.00;7.63;;;18.40;99.90;;;;;;5015383;28;20958;-88
2021/07/28 07:36:40;;;;;;;8.87;8.00;;;18.50;99.90;;;;;;5015095;28;20985;-88
2021/07/28 07:39:08;;;;;;;7.70;7.00;;;18.50;99.90;;;;;;5015261;28;20489;-88
2021/07/28 07:41:36;;;;;;;7.73;7.03;;;18.50;99.90;;;;;;5015929;28;20797;-88
2021/07/28 07:44:03;;;;;;;10.00;7.80;;;18.50;99.90;;;;;;5015622;28;20552;-88
2021/07/28 07:46:30;;;;;;;8.87;7.97;;;18.50;99.90;;;;;;5014910;28;20562;-88
2021/07/28 07:48:57;;;;;;;7.53;6.83;;;18.60;99.90;;;;;;5014824;28;20507;-88
2021/07/28 07:51:26;;;;;;;9.73;8.67;;;18.50;99.90;;;;;;5014709;28;20457;-88
2021/07/28 07:53:53;;;;;;;7.73;7.03;;;18.50;99.90;;;;;;5014777;28;20445;-88
2021/07/28 07:56:20;;;;;;;8.83;8.13;;;18.60;99.90;;;;;;5014738;28;20479;-88
2021/07/28 07:58:48;;;;;;;10.40;8.50;;;18.60;99.90;;;;;;5015007;28;20467;-88
2021/07/28 08:01:14;;;;;;;8.50;7.70;;;18.60;99.90;;;;;;5013831;28;20443;-88
2021/07/28 08:03:42;;;;;;;8.60;7.77;;;18.60;99.90;;;;;;5014394;28;20459;-89
2021/07/28 08:06:10;;;;;;;8.13;7.30;;;18.50;99.90;;;;;;5014263;28;20954;-88
2021/07/28 08:08:38;;;;;;;8.63;7.60;;;18.60;99.90;;;;;;5014593;28;20481;-89
2021/07/28 08:11:07;;;;;;;10.90;7.83;;;18.50;99.90;;;;;;5014608;28;20448;-89
2021/07/28 08:13:34;;;;;;;8.67;7.87;;;18.30;99.90;;;;;;5014562;28;20920;-89
2021/07/28 08:16:09;;;;;;;8.67;7.93;;;18.20;99.90;;;;;;5014539;28;20926;-89
2021/07/28 08:18:35;;;;;;;7.07;6.43;;;18.20;99.90;;;;;;5014317;28;20432;-89
2021/07/28 08:21:02;;;;;;;7.10;6.40;;;18.30;99.90;;;;;;5014356;28;20470;-89
2021/07/28 08:23:29;;;;;;;6.60;5.67;;;18.30;99.90;;;;;;5013888;28;20957;-88
2021/07/28 08:25:56;;;;;;;7.57;6.87;;;18.20;99.90;;;;;;5014088;28;20460;-89
2021/07/28 08:28:23;;;;;;;17.70;9.43;;;18.30;99.90;;;;;;5014178;28;20494;-89
2021/07/28 08:30:50;;;;;;;9.60;8.67;;;18.30;99.90;;;;;;5014329;28;20457;-89
2021/07/28 08:33:18;;;;;;;7.80;6.50;;;18.40;99.90;;;;;;5013931;28;20844;-88
2021/07/28 08:35:49;;;;;;;7.10;6.40;;;18.50;99.90;;;;;;5013952;28;20531;-89
2021/07/28 08:38:18;;;;;;;7.80;6.90;;;18.60;99.90;;;;;;5013980;28;20481;-89
2021/07/28 08:40:50;;;;;;;7.17;6.53;;;18.60;99.90;;;;;;5013944;28;20465;-89
2021/07/28 08:43:20;;;;;;;7.60;6.90;;;18.60;99.90;;;;;;5013823;28;20448;-89
2021/07/28 08:45:48;;;;;;;7.90;7.10;;;18.50;99.90;;;;;;5013970;28;20560;-88
2021/07/28 08:48:18;;;;;;;7.50;6.80;;;18.50;99.90;;;;;;5013489;28;20481;-88
2021/07/28 08:50:48;;;;;;;8.27;7.57;;;18.70;99.90;;;;;;5014450;28;20456;-89
2021/07/28 08:53:15;;;;;;;7.40;6.63;;;18.80;99.90;;;;;;5013394;28;20551;-89
2021/07/28 08:55:42;;;;;;;12.43;7.73;;;18.90;99.90;;;;;;5013562;28;20477;-88
2021/07/28 08:58:13;;;;;;;8.00;6.43;;;19.10;99.90;;;;;;5013416;28;20998;-89
2021/07/28 09:00:44;;;;;;;6.60;5.40;;;19.30;99.90;;;;;;5013582;28;20528;-88
2021/07/28 09:03:12;;;;;;;5.83;5.33;;;19.40;99.90;;;;;;5013640;28;20504;-88
2021/07/28 09:05:41;;;;;;;6.13;5.60;;;19.40;99.90;;;;;;5013612;28;20462;-89
2021/07/28 09:08:22;;;;;;;6.93;6.20;;;19.40;99.90;;;;;;5013077;28;20485;-89
2021/07/28 09:10:53;;;;;;;5.30;4.80;;;19.60;99.90;;;;;;5013908;28;20449;-88
2021/07/28 09:13:27;;;;;;;5.90;5.43;;;19.70;99.90;;;;;;5013119;28;20819;-88
2021/07/28 09:15:56;;;;;;;7.57;5.93;;;19.80;99.90;;;;;;5013363;28;20545;-88
2021/07/28 09:18:41;;;;;;;6.00;5.50;;;19.90;99.90;;;;;;5013601;28;20490;-88
2021/07/28 09:21:35;;;;;;;5.70;5.20;;;20.10;99.90;;;;;;5012848;28;20954;-89
2021/07/28 09:24:28;;;;;;;5.50;5.00;;;20.20;99.90;;;;;;5009160;28;21014;-88
2021/07/28 09:30:41;;;;;;;6.40;5.80;;;20.20;99.90;;;;;;5011918;28;20583;-88
2021/07/28 09:33:51;;;;;;;;;;;;;;;;;;;;;
2021/07/28 09:40:00;;;;;;;5.43;4.90;;;20.80;99.90;;;;;;4984135;28;20461;-88
2021/07/28 10:13:44;;;;;;;4.83;4.50;;;21.30;99.90;;;;;;4715375;30;20485;-89
2021/07/28 10:17:10;;;;;;;5.53;5.03;;;21.50;99.90;;;;;;4821532;29;20612;-91
2021/07/28 10:20:25;;;;;;;5.30;4.80;;;21.70;99.90;;;;;;4789590;29;20473;-89
2021/07/28 10:23:27;;;;;;;5.33;4.93;;;21.70;99.90;;;;;;4733355;30;20472;-89
2021/07/28 10:26:53;;;;;;;;;;;;;;;;;;;;;
2021/07/28 10:33:18;;;;;;;5.20;4.80;;;21.70;99.90;;;;;;4806530;29;20550;-89
2021/07/28 10:46:28;;;;;;;4.83;4.33;;;21.90;99.90;;;;;;4961106;28;20451;-88
2021/07/28 10:49:43;;;;;;;5.00;4.50;;;22.00;99.90;;;;;;5016061;28;20610;-89
2021/07/28 10:52:54;;;;;;;4.70;4.20;;;22.10;99.90;;;;;;5017419;28;20481;-89
2021/07/28 10:58:49;;;;;;;5.13;4.33;;;22.10;99.90;;;;;;5015357;28;20479;-89
2021/07/28 11:05:21;;;;;;;;;;;;;;;;;;;;;
2021/07/28 11:08:12;;;;;;;4.60;4.20;;;22.30;99.90;;;;;;5043726;23;20517;-85
2021/07/28 11:10:41;;;;;;;4.57;4.17;;;22.40;99.90;;;;;;5034245;28;20509;-85
2021/07/28 11:13:10;;;;;;;5.10;4.70;;;22.30;99.90;;;;;;5033723;28;20450;-85
2021/07/28 11:15:38;;;;;;;4.23;3.83;;;22.30;99.90;;;;;;5033984;28;20442;-85
2021/07/28 11:18:05;;;;;;;4.53;4.13;;;22.40;99.90;;;;;;5034374;28;20915;-86
2021/07/28 11:20:34;;;;;;;4.93;4.53;;;22.50;99.90;;;;;;5034513;28;20450;-85
2021/07/28 11:23:59;;;;;;;4.73;4.43;;;22.90;99.90;;;;;;5034262;28;20458;-85
2021/07/28 11:26:38;;;;;;;6.23;5.67;;;23.20;99.90;;;;;;5030701;28;21029;-85
2021/07/28 11:29:10;;;;;;;5.37;4.97;;;23.60;99.90;;;;;;5034402;28;21121;-86
2021/07/28 11:31:43;;;;;;;3.90;3.60;;;24.10;99.90;;;;;;5033856;28;20457;-85
2021/07/28 11:34:19;;;;;;;5.23;4.83;;;24.30;99.90;;;;;;5034108;28;20822;-85
2021/07/28 11:36:56;;;;;;;5.47;4.97;;;24.30;99.30;;;;;;5032845;28;20482;-85
2021/07/28 11:39:29;;;;;;;4.33;3.93;;;24.60;98.80;;;;;;5034456;28;20451;-86
2021/07/28 11:42:05;;;;;;;5.77;5.07;;;24.90;99.30;;;;;;5034330;28;20548;-87
2021/07/28 11:44:46;;;;;;;6.70;4.60;;;25.30;97.40;;;;;;5034431;28;20449;-85
2021/07/28 11:47:29;;;;;;;5.30;4.90;;;25.60;96.50;;;;;;5034336;28;20472;-85
2021/07/28 11:50:03;;;;;;;4.77;4.47;;;25.80;96.80;;;;;;5034128;28;20489;-85
2021/07/28 11:52:32;;;;;;;4.70;4.30;;;26.10;95.20;;;;;;5033992;28;20457;-86
2021/07/28 11:55:06;;;;;;;5.13;4.73;;;26.30;94.40;;;;;;5034510;28;20944;-86
2021/07/28 11:57:35;;;;;;;4.53;4.23;;;26.40;93.80;;;;;;5034109;28;20473;-86
2021/07/28 12:00:30;;;;;;;4.30;3.90;;;26.70;92.60;;;;;;5034153;28;21042;-86
2021/07/28 12:03:28;;;;;;;6.73;4.13;;;27.00;92.60;;;;;;5024051;28;20501;-85
2021/07/28 12:06:03;;;;;;;3.60;3.30;;;27.10;92.60;;;;;;5034093;28;20985;-86
2021/07/28 12:08:31;;;;;;;4.60;4.20;;;27.40;91.80;;;;;;5034101;28;20464;-86
2021/07/28 12:11:05;;;;;;;4.80;4.40;;;27.30;91.40;;;;;;5034059;28;20972;-86
2021/07/28 12:13:43;;;;;;;4.60;4.20;;;27.30;91.70;;;;;;5033794;28;20463;-86
2021/07/28 12:16:31;;;;;;;4.93;4.53;;;27.50;90.80;;;;;;5033652;28;20462;-86
2021/07/28 12:19:06;;;;;;;3.90;3.60;;;27.70;91.00;;;;;;5033655;28;20456;-87
2021/07/28 12:21:54;;;;;;;4.53;4.17;;;27.90;90.30;;;;;;5033591;28;20786;-86
2021/07/28 12:24:42;;;;;;;4.67;4.23;;;28.00;89.40;;;;;;5033798;28;20454;-86
2021/07/28 12:28:03;;;;;;;4.50;4.10;;;28.10;88.60;;;;;;5033434;28;20469;-86
2021/07/28 12:30:35;;;;;;;4.20;3.93;;;27.70;89.30;;;;;;5033409;28;20504;-86
2021/07/28 12:33:08;;;;;;;5.90;5.30;;;27.20;89.70;;;;;;5033368;28;20496;-86
2021/07/28 12:35:46;;;;;;;5.00;4.60;;;26.90;90.60;;;;;;5033394;28;20461;-86
2021/07/28 12:38:20;;;;;;;4.13;3.83;;;26.90;90.60;;;;;;5033493;28;20881;-86
2021/07/28 12:40:59;;;;;;;4.30;4.00;;;27.00;90.30;;;;;;5033397;28;20546;-85
2021/07/28 12:43:31;;;;;;;4.40;4.00;;;27.00;90.20;;;;;;5030532;28;20464;-86
2021/07/28 12:45:59;;;;;;;5.30;4.90;;;27.20;90.60;;;;;;5032984;28;20872;-86
2021/07/28 12:48:28;;;;;;;4.67;4.03;;;27.30;89.80;;;;;;5032977;28;20458;-86
2021/07/28 12:50:58;;;;;;;5.60;5.20;;;27.60;88.60;;;;;;5033172;28;20500;-86
2021/07/28 12:53:25;;;;;;;5.23;4.83;;;28.10;89.20;;;;;;5032836;28;20462;-86
2021/07/28 12:55:52;;;;;;;4.77;4.33;;;28.60;87.80;;;;;;5032974;28;20459;-86
2021/07/28 12:58:19;;;;;;;4.63;4.27;;;28.80;83.80;;;;;;5032715;28;20480;-86
2021/07/28 13:00:46;;;;;;;3.90;3.67;;;29.00;83.40;;;;;;5033174;28;20453;-86
2021/07/28 13:03:15;;;;;;;4.20;3.90;;;29.30;82.00;;;;;;5032837;28;20459;-86
2021/07/28 13:05:44;;;;;;;3.77;3.47;;;29.60;78.50;;;;;;5032975;28;20549;-86
2021/07/28 13:08:13;;;;;;;4.70;4.40;;;30.00;80.00;;;;;;5032670;28;20556;-86
2021/07/28 13:10:41;;;;;;;4.80;4.50;;;30.50;76.80;;;;;;5032665;28;20489;-86
2021/07/28 13:13:08;;;;;;;5.00;4.60;;;30.60;76.90;;;;;;5032703;28;20449;-86
2021/07/28 13:15:36;;;;;;;4.40;4.10;;;30.30;76.00;;;;;;5032681;28;20987;-86
2021/07/28 13:18:04;;;;;;;4.47;4.17;;;29.90;76.40;;;;;;5032510;28;21034;-86
2021/07/28 13:20:31;;;;;;;7.90;4.77;;;29.50;78.60;;;;;;5032667;28;20450;-86
2021/07/28 13:26:22;;;;;;;4.37;3.97;;;28.10;79.40;;;;;;5032286;28;20460;-86
2021/07/28 13:28:48;;;;;;;5.10;4.70;;;27.60;81.60;;;;;;5032430;28;20454;-86
2021/07/28 13:31:15;;;;;;;4.90;4.50;;;27.80;83.20;;;;;;5032297;28;20937;-86
2021/07/28 13:33:42;;;;;;;5.17;4.80;;;27.90;82.20;;;;;;5032340;28;20453;-86
2021/07/28 13:36:09;;;;;;;4.40;4.00;;;28.10;80.70;;;;;;5032753;28;20828;-86
2021/07/28 13:38:36;;;;;;;3.90;3.60;;;28.70;80.30;;;;;;5032584;28;20463;-86
2021/07/28 13:41:03;;;;;;;4.93;4.20;;;29.60;78.50;;;;;;5032559;28;20444;-86
2021/07/28 13:43:54;;;;;;;7.30;4.50;;;30.00;77.00;;;;;;5032247;28;20821;-86
2021/07/28 13:46:28;;;;;;;3.80;3.50;;;30.50;74.50;;;;;;5022548;28;20488;-86
2021/07/28 13:48:59;;;;;;;3.80;3.60;;;30.90;73.80;;;;;;5032210;28;20445;-86
2021/07/28 13:51:27;;;;;;;4.60;4.30;;;31.40;70.30;;;;;;5032521;28;20464;-86
2021/07/28 13:53:54;;;;;;;4.00;3.67;;;31.80;70.00;;;;;;5032315;28;20636;-86
2021/07/28 13:56:21;;;;;;;4.73;4.33;;;32.20;67.20;;;;;;5031876;28;20475;-85
2021/07/28 13:58:48;;;;;;;5.17;4.73;;;32.30;66.50;;;;;;5031313;28;20454;-86
2021/07/28 14:01:16;;;;;;;4.40;4.10;;;32.40;66.90;;;;;;5032208;28;20445;-85
2021/07/28 14:03:43;;;;;;;4.77;4.23;;;32.70;66.90;;;;;;5031880;28;20450;-86
2021/07/28 14:06:17;;;;;;;5.00;4.70;;;33.00;63.90;;;;;;5031999;28;20458;-86
2021/07/28 14:08:44;;;;;;;4.50;4.20;;;33.10;63.10;;;;;;5031989;28;20474;-86
2021/07/28 14:11:10;;;;;;;5.03;4.60;;;32.90;61.70;;;;;;5037449;28;20862;-86